Time;durP1;ratioP1;P1;durP2;ratioP2;P2;SDS_P1;SDS_P2;PMS_P1;PMS_P2;Temp;Humidity;BMP_temperature;BMP_pressure;BME280_temperature;BME280_humidity;BME280_pressure;Samples;Min_cycle;Max_cycle;Signal;HPM_P1;HPM_P2
2021/01/11 00:01:48;;;;;;;27.80;16.43;;;4.60;99.90;;;;;;5035518;28;20171;-67
2021/01/11 00:04:13;;;;;;;26.00;14.53;;;4.60;99.90;;;;;;5034901;28;20467;-67
2021/01/11 00:06:44;;;;;;;24.37;13.63;;;4.60;99.90;;;;;;5035919;28;20169;-67
2021/01/11 00:09:10;;;;;;;24.33;15.57;;;4.60;99.90;;;;;;5036208;28;20546;-68
2021/01/11 00:11:36;;;;;;;22.40;14.90;;;4.70;99.90;;;;;;5035577;28;20430;-68
2021/01/11 00:17:23;;;;;;;26.03;16.00;;;4.60;99.90;;;;;;5034983;28;20923;-67
2021/01/11 00:19:48;;;;;;;26.27;14.73;;;4.50;99.90;;;;;;5035286;28;20497;-69
2021/01/11 00:22:14;;;;;;;24.70;15.23;;;4.50;99.90;;;;;;5035131;28;20182;-68
2021/01/11 00:24:39;;;;;;;28.03;14.47;;;4.50;99.90;;;;;;5034948;28;20236;-68
2021/01/11 00:30:27;;;;;;;24.50;14.50;;;4.30;99.90;;;;;;5035103;28;20569;-69
2021/01/11 00:32:53;;;;;;;24.37;15.00;;;4.30;99.90;;;;;;5034781;28;20435;-69
2021/01/11 00:35:18;;;;;;;31.03;15.30;;;4.30;99.90;;;;;;5035253;28;20255;-69
2021/01/11 00:37:44;;;;;;;25.60;14.90;;;4.40;99.90;;;;;;5034800;28;20183;-69
2021/01/11 00:40:09;;;;;;;29.02;15.90;;;4.50;99.90;;;;;;5034653;28;20421;-69
2021/01/11 00:42:36;;;;;;;22.10;14.37;;;4.40;99.90;;;;;;5035010;28;20179;-69
2021/01/11 00:45:06;;;;;;;29.00;14.60;;;4.40;99.90;;;;;;5034963;28;20284;-69
2021/01/11 00:47:38;;;;;;;25.57;15.07;;;4.50;99.90;;;;;;5034933;28;20770;-69
2021/01/11 00:50:04;;;;;;;19.73;13.57;;;4.50;99.90;;;;;;5034853;28;20409;-69
2021/01/11 00:52:29;;;;;;;24.20;14.70;;;4.50;99.90;;;;;;5034836;28;20778;-69
2021/01/11 00:54:54;;;;;;;24.17;14.80;;;4.50;99.90;;;;;;5034534;28;20509;-69
2021/01/11 00:57:20;;;;;;;22.90;14.37;;;4.40;99.90;;;;;;5034728;28;20167;-69
2021/01/11 00:59:45;;;;;;;28.77;15.03;;;4.40;99.90;;;;;;5034469;28;20183;-68
2021/01/11 01:02:11;;;;;;;20.90;14.00;;;4.40;99.90;;;;;;5034640;28;20183;-69
2021/01/11 01:04:36;;;;;;;26.70;14.90;;;4.40;99.90;;;;;;5034559;28;20211;-69
2021/01/11 01:07:03;;;;;;;19.40;13.27;;;4.50;99.90;;;;;;5034343;28;20171;-68
2021/01/11 01:09:29;;;;;;;24.00;13.00;;;4.50;99.90;;;;;;5034539;28;20523;-68
2021/01/11 01:11:55;;;;;;;23.53;15.03;;;4.50;99.90;;;;;;5033965;28;20422;-68
2021/01/11 01:14:20;;;;;;;19.63;13.70;;;4.50;99.90;;;;;;5034975;28;20458;-68
2021/01/11 01:16:46;;;;;;;22.43;13.73;;;4.40;99.90;;;;;;5033485;28;20215;-68
2021/01/11 01:19:11;;;;;;;20.07;12.87;;;4.60;99.90;;;;;;5034404;28;20175;-68
2021/01/11 01:21:37;;;;;;;21.00;13.00;;;4.60;99.90;;;;;;5034611;28;20183;-68
2021/01/11 01:24:02;;;;;;;26.57;15.90;;;4.50;99.90;;;;;;5033860;28;20241;-68
2021/01/11 01:26:28;;;;;;;24.23;13.03;;;4.50;99.90;;;;;;5034736;28;20175;-68
2021/01/11 01:28:53;;;;;;;30.00;15.17;;;4.50;99.90;;;;;;5033925;28;20639;-68
2021/01/11 01:31:18;;;;;;;25.77;14.60;;;4.60;99.90;;;;;;5034172;28;20176;-68
2021/01/11 01:33:44;;;;;;;34.47;14.90;;;4.50;99.90;;;;;;5034132;28;20175;-68
2021/01/11 01:36:09;;;;;;;28.60;15.80;;;4.50;99.90;;;;;;5033777;28;20196;-68
2021/01/11 01:38:35;;;;;;;26.23;15.97;;;4.50;99.90;;;;;;5033706;28;20192;-68
2021/01/11 01:41:01;;;;;;;23.10;15.00;;;4.50;99.90;;;;;;5034018;28;20210;-68
2021/01/11 01:43:26;;;;;;;22.97;15.00;;;4.50;99.90;;;;;;5033880;28;20637;-69
2021/01/11 01:45:52;;;;;;;29.57;15.80;;;4.40;99.90;;;;;;5033920;28;20817;-69
2021/01/11 01:48:18;;;;;;;29.93;17.17;;;4.40;99.90;;;;;;5033893;28;20193;-69
2021/01/11 01:50:44;;;;;;;26.53;15.63;;;4.50;99.90;;;;;;5033833;28;20186;-69
2021/01/11 01:53:10;;;;;;;22.57;16.00;;;4.60;99.90;;;;;;5033884;28;20786;-69
2021/01/11 01:55:38;;;;;;;23.97;15.60;;;4.50;99.90;;;;;;5033557;28;20174;-69
2021/01/11 01:58:08;;;;;;;26.70;17.27;;;4.50;99.90;;;;;;5033873;28;20535;-69
2021/01/11 02:00:34;;;;;;;27.57;15.70;;;4.50;99.90;;;;;;5033812;28;20414;-69
2021/01/11 02:02:59;;;;;;;28.57;17.07;;;4.60;99.90;;;;;;5033446;28;20456;-69
2021/01/11 02:05:25;;;;;;;25.83;15.93;;;4.50;99.90;;;;;;5033379;28;20218;-69
2021/01/11 02:07:59;;;;;;;28.23;17.83;;;4.50;99.90;;;;;;5033378;28;20183;-69
2021/01/11 02:10:35;;;;;;;27.87;16.90;;;4.50;99.90;;;;;;5033673;28;20190;-69
2021/01/11 02:13:31;;;;;;;36.10;17.47;;;4.50;99.90;;;;;;5033737;28;20517;-68
2021/01/11 02:16:11;;;;;;;30.27;17.97;;;4.40;99.90;;;;;;5033661;28;20416;-68
2021/01/11 02:19:06;;;;;;;28.00;16.47;;;4.40;99.90;;;;;;5033680;28;20772;-68
2021/01/11 02:21:49;;;;;;;27.67;18.07;;;4.40;99.90;;;;;;5033577;28;20462;-68
2021/01/11 06:31:31;;;;;;;34.23;19.37;;;3.20;99.90;;;;;;5555614;23;20623;-68
2021/01/11 06:33:58;;;;;;;34.10;19.83;;;3.20;99.90;;;;;;5032962;28;20449;-67
2021/01/11 06:36:28;;;;;;;36.60;18.80;;;3.20;99.90;;;;;;5032766;28;20939;-68
2021/01/11 06:38:54;;;;;;;32.43;19.60;;;3.30;99.90;;;;;;5032978;28;20504;-68
2021/01/11 06:41:26;;;;;;;26.37;17.80;;;3.10;99.90;;;;;;5032836;28;20884;-68
2021/01/11 06:43:53;;;;;;;32.27;18.87;;;3.20;99.90;;;;;;5032783;28;20493;-69
2021/01/11 06:46:28;;;;;;;30.50;17.13;;;3.20;99.90;;;;;;5031517;28;20426;-68
2021/01/11 06:48:59;;;;;;;32.20;17.43;;;3.20;99.90;;;;;;5032654;28;20964;-68
2021/01/11 06:51:41;;;;;;;36.27;19.57;;;3.20;99.90;;;;;;5032682;28;20430;-68
2021/01/11 06:54:14;;;;;;;31.37;19.83;;;3.30;99.90;;;;;;5032884;28;20430;-68
2021/01/11 06:56:41;;;;;;;33.83;22.30;;;3.30;99.90;;;;;;5031900;28;20468;-68
2021/01/11 06:59:17;;;;;;;38.57;21.30;;;3.30;99.90;;;;;;5032742;28;20226;-68
2021/01/11 07:01:45;;;;;;;34.53;20.10;;;3.30;99.90;;;;;;5032713;28;20492;-68
2021/01/11 07:04:28;;;;;;;27.83;17.67;;;3.30;99.90;;;;;;5032524;28;20524;-68
2021/01/11 07:06:59;;;;;;;28.93;17.73;;;3.10;99.90;;;;;;5045238;22;20496;-68
2021/01/11 07:09:25;;;;;;;31.80;18.10;;;3.20;99.90;;;;;;5032679;28;20440;-68
2021/01/11 07:11:51;;;;;;;35.17;17.10;;;3.20;99.90;;;;;;5032658;28;20435;-68
2021/01/11 07:14:22;;;;;;;28.30;18.07;;;3.30;99.90;;;;;;5034083;28;20188;-68
2021/01/11 07:16:52;;;;;;;29.30;18.17;;;3.30;99.90;;;;;;5036237;28;20441;-68
2021/01/11 07:19:22;;;;;;;35.40;18.87;;;3.30;99.90;;;;;;5036146;28;20437;-68
2021/01/11 07:21:49;;;;;;;29.47;17.13;;;3.30;99.90;;;;;;5036035;28;20454;-68
2021/01/11 07:24:16;;;;;;;35.23;18.80;;;3.20;99.90;;;;;;5035892;28;20497;-68
2021/01/11 07:26:42;;;;;;;24.93;16.00;;;3.30;99.90;;;;;;5036016;28;20430;-68
2021/01/11 07:29:10;;;;;;;26.30;16.60;;;3.30;99.90;;;;;;5035833;28;20434;-68
2021/01/11 07:31:38;;;;;;;29.17;16.00;;;3.40;99.90;;;;;;5035980;28;20564;-68
2021/01/11 07:34:12;;;;;;;28.87;18.30;;;3.50;99.90;;;;;;5035840;28;20813;-69
2021/01/11 07:36:42;;;;;;;28.50;18.13;;;3.40;99.90;;;;;;5035867;28;20432;-68
2021/01/11 07:39:27;;;;;;;30.57;16.83;;;3.40;99.90;;;;;;5035776;28;20801;-68
2021/01/11 07:41:59;;;;;;;27.93;16.77;;;3.40;99.90;;;;;;5035785;28;20436;-68
2021/01/11 07:44:36;;;;;;;28.10;18.90;;;3.40;99.90;;;;;;5035521;28;20814;-68
2021/01/11 07:47:04;;;;;;;28.47;16.67;;;3.40;99.90;;;;;;5035650;28;20430;-68
2021/01/11 07:49:36;;;;;;;29.37;19.10;;;3.40;99.90;;;;;;5035438;28;20436;-68
2021/01/11 07:52:09;;;;;;;30.80;18.37;;;3.40;99.90;;;;;;5035570;28;20436;-68
2021/01/11 07:54:35;;;;;;;29.77;17.90;;;3.50;99.90;;;;;;5035447;28;20430;-68
2021/01/11 07:57:01;;;;;;;25.60;17.83;;;3.50;99.90;;;;;;5035419;28;20502;-68
2021/01/11 07:59:27;;;;;;;30.03;19.10;;;3.50;99.90;;;;;;5035238;28;20433;-69
2021/01/11 08:01:53;;;;;;;32.17;18.53;;;3.40;99.90;;;;;;5035245;28;20178;-68
2021/01/11 08:04:19;;;;;;;34.47;19.90;;;3.40;99.90;;;;;;5021418;28;20204;-68
2021/01/11 08:06:52;;;;;;;24.57;16.13;;;3.30;99.90;;;;;;5015108;28;20262;-68
2021/01/11 08:09:20;;;;;;;31.23;19.20;;;3.40;99.90;;;;;;5015294;28;20505;-68
2021/01/11 08:11:46;;;;;;;31.83;22.45;;;3.40;99.90;;;;;;5014083;28;20446;-67
2021/01/11 08:14:12;;;;;;;28.17;19.00;;;3.30;99.90;;;;;;5017878;28;20192;-68
2021/01/11 08:16:43;;;;;;;36.70;20.13;;;3.50;99.90;;;;;;5024457;28;20469;-67
2021/01/11 08:19:10;;;;;;;31.87;19.30;;;3.50;99.90;;;;;;5031346;28;20493;-67
2021/01/11 08:21:37;;;;;;;32.13;16.40;;;3.60;99.90;;;;;;5023741;28;20430;-67
2021/01/11 08:24:05;;;;;;;28.30;18.37;;;3.60;99.90;;;;;;5022942;28;20492;-67
2021/01/11 08:26:55;;;;;;;30.60;17.10;;;3.50;99.90;;;;;;5031821;28;20447;-67
2021/01/11 08:29:21;;;;;;;30.07;19.03;;;3.50;99.90;;;;;;5027880;28;20448;-67
2021/01/11 08:31:47;;;;;;;26.10;17.30;;;3.50;99.90;;;;;;5033155;28;20536;-67
2021/01/11 08:34:13;;;;;;;24.07;17.60;;;3.50;99.90;;;;;;5032566;28;20187;-68
2021/01/11 08:36:38;;;;;;;29.48;20.25;;;3.50;99.90;;;;;;5028775;28;20429;-68
2021/01/11 08:39:06;;;;;;;28.70;15.57;;;3.70;99.90;;;;;;5027952;28;20364;-69
2021/01/11 08:41:33;;;;;;;27.23;16.47;;;3.80;99.90;;;;;;5031896;28;20560;-69
2021/01/11 08:43:59;;;;;;;24.37;15.73;;;3.90;99.90;;;;;;5034471;28;20496;-70
2021/01/11 08:46:44;;;;;;;22.47;13.50;;;3.90;99.90;;;;;;5034246;28;20945;-67
2021/01/11 08:49:10;;;;;;;24.13;15.80;;;3.90;99.90;;;;;;5034087;28;20209;-67
2021/01/11 08:51:35;;;;;;;30.83;14.93;;;3.80;99.90;;;;;;5034168;28;20428;-67
2021/01/11 08:54:01;;;;;;;25.27;15.13;;;3.80;99.90;;;;;;5034225;28;20247;-68
2021/01/11 08:56:27;;;;;;;20.40;14.00;;;3.80;99.90;;;;;;5034115;28;20174;-68
2021/01/11 08:58:54;;;;;;;24.33;14.83;;;3.60;99.90;;;;;;5034045;28;20178;-68
2021/01/11 09:01:26;;;;;;;21.50;15.30;;;3.60;99.90;;;;;;5033972;28;20426;-68
2021/01/11 09:03:54;;;;;;;22.63;14.83;;;3.80;99.90;;;;;;5030752;28;20468;-68
2021/01/11 09:06:46;;;;;;;27.73;15.67;;;3.70;99.90;;;;;;5030859;28;20470;-69
2021/01/11 09:09:17;;;;;;;26.60;14.80;;;3.80;99.90;;;;;;5032440;28;20955;-68
2021/01/11 09:11:47;;;;;;;23.90;15.27;;;3.80;99.90;;;;;;5033361;28;20839;-69
2021/01/11 09:14:14;;;;;;;21.83;14.50;;;3.90;99.90;;;;;;5033886;28;20426;-68
2021/01/11 09:16:40;;;;;;;22.97;14.40;;;3.80;99.90;;;;;;5033872;28;20428;-69
2021/01/11 09:19:13;;;;;;;26.40;15.10;;;3.80;99.90;;;;;;5033718;28;20430;-68
2021/01/11 09:21:40;;;;;;;25.97;17.03;;;3.80;99.90;;;;;;5033710;28;20996;-68
2021/01/11 09:24:07;;;;;;;21.90;13.83;;;3.90;99.90;;;;;;5033588;28;20480;-69
2021/01/11 09:26:34;;;;;;;20.73;12.97;;;3.90;99.90;;;;;;5033687;28;20432;-69
2021/01/11 09:29:00;;;;;;;22.00;15.70;;;4.00;99.90;;;;;;5033510;28;20434;-68
2021/01/11 09:31:25;;;;;;;27.40;15.63;;;4.00;99.90;;;;;;5033587;28;20437;-69
2021/01/11 09:33:53;;;;;;;24.47;15.17;;;4.00;99.90;;;;;;5033524;28;20433;-68
2021/01/11 09:36:20;;;;;;;26.50;15.97;;;4.10;99.90;;;;;;5032972;28;20190;-69
2021/01/11 09:38:46;;;;;;;26.43;16.27;;;4.10;99.90;;;;;;5021116;28;20532;-68
2021/01/11 09:41:12;;;;;;;26.50;14.33;;;4.10;99.90;;;;;;5013711;28;20781;-69
2021/01/11 09:43:37;;;;;;;27.27;16.73;;;4.20;99.90;;;;;;5022539;28;20533;-70
2021/01/11 09:46:03;;;;;;;20.43;13.23;;;4.00;99.90;;;;;;5022927;28;20500;-70
2021/01/11 09:48:28;;;;;;;22.70;14.93;;;4.10;99.90;;;;;;5024464;28;20536;-70
2021/01/11 09:50:54;;;;;;;23.23;15.77;;;4.20;99.90;;;;;;5021981;28;20174;-70
2021/01/11 09:53:20;;;;;;;29.70;17.30;;;4.20;99.90;;;;;;5023838;28;20635;-70
2021/01/11 09:55:45;;;;;;;23.67;14.50;;;4.20;99.90;;;;;;5022883;28;20208;-70
2021/01/11 09:58:15;;;;;;;23.87;16.13;;;4.20;99.90;;;;;;5030409;28;20422;-69
2021/01/11 10:00:41;;;;;;;22.60;15.03;;;4.10;99.90;;;;;;5032035;28;20178;-69
2021/01/11 10:03:06;;;;;;;27.77;16.30;;;4.00;99.90;;;;;;5033103;28;20429;-68
2021/01/11 10:05:32;;;;;;;20.70;12.87;;;3.90;99.90;;;;;;5033015;28;20215;-70
2021/01/11 10:07:57;;;;;;;23.63;13.77;;;4.10;99.90;;;;;;5033027;28;20230;-70
2021/01/11 10:10:23;;;;;;;21.70;13.97;;;4.10;99.90;;;;;;5032993;28;20208;-70
2021/01/11 10:12:48;;;;;;;19.73;12.77;;;3.90;99.90;;;;;;5033142;28;20629;-70
2021/01/11 10:15:14;;;;;;;20.93;13.47;;;3.90;99.90;;;;;;5033038;28;20178;-70
2021/01/11 10:17:39;;;;;;;19.70;12.80;;;3.90;99.90;;;;;;5033103;28;20178;-70
2021/01/11 10:20:10;;;;;;;22.10;13.70;;;3.90;99.90;;;;;;5032995;28;20207;-70
2021/01/11 10:22:36;;;;;;;17.43;12.23;;;3.70;99.90;;;;;;5032835;28;20182;-69
2021/01/11 10:25:01;;;;;;;26.83;14.30;;;3.90;99.90;;;;;;5032866;28;20500;-69
2021/01/11 10:27:27;;;;;;;18.27;12.10;;;3.90;99.90;;;;;;5032819;28;20237;-69
2021/01/11 10:29:53;;;;;;;17.00;11.57;;;3.70;99.90;;;;;;5032966;28;20184;-69
2021/01/11 10:32:19;;;;;;;16.80;11.60;;;3.70;99.90;;;;;;5032800;28;20551;-69
2021/01/11 10:34:44;;;;;;;28.10;12.37;;;3.80;99.90;;;;;;5032761;28;20428;-69
2021/01/11 10:37:10;;;;;;;20.10;10.70;;;3.90;99.90;;;;;;5032860;28;20176;-69
2021/01/11 10:39:35;;;;;;;16.73;10.70;;;4.00;99.90;;;;;;5032663;28;20672;-69
2021/01/11 10:42:01;;;;;;;19.20;12.57;;;3.70;99.90;;;;;;5032580;28;20194;-69
2021/01/11 10:44:27;;;;;;;15.43;9.87;;;3.80;99.90;;;;;;5032477;28;20689;-69
2021/01/11 10:46:54;;;;;;;18.33;10.77;;;4.00;99.90;;;;;;5032715;28;20179;-69
2021/01/11 10:49:21;;;;;;;19.10;12.10;;;3.80;99.90;;;;;;5034385;28;20446;-69
2021/01/11 10:51:48;;;;;;;34.00;11.43;;;3.80;99.90;;;;;;5036569;28;20428;-69
2021/01/11 10:54:14;;;;;;;21.17;12.30;;;3.80;99.90;;;;;;5036469;28;20441;-69
2021/01/11 10:56:39;;;;;;;22.20;10.83;;;3.70;99.90;;;;;;5036491;28;20426;-69
2021/01/11 10:59:05;;;;;;;15.90;9.60;;;3.70;99.90;;;;;;5036287;28;20425;-69
2021/01/11 11:01:31;;;;;;;21.67;14.53;;;3.80;99.90;;;;;;5036351;28;20260;-69
2021/01/11 11:03:56;;;;;;;23.57;11.00;;;3.90;99.90;;;;;;5036334;28;20180;-69
2021/01/11 11:06:25;;;;;;;18.20;11.40;;;3.90;99.90;;;;;;5036305;28;20309;-69
2021/01/11 11:08:51;;;;;;;18.13;10.10;;;3.80;99.90;;;;;;5036336;28;20181;-69
2021/01/11 11:11:16;;;;;;;19.20;12.73;;;3.90;99.90;;;;;;5036196;28;20845;-68
2021/01/11 11:13:42;;;;;;;22.10;11.13;;;4.00;99.90;;;;;;5036174;28;20269;-69
2021/01/11 11:16:10;;;;;;;15.67;9.70;;;4.00;99.90;;;;;;5036115;28;20280;-69
2021/01/11 11:18:39;;;;;;;17.23;10.90;;;4.00;99.90;;;;;;5035987;28;20512;-69
2021/01/11 11:21:09;;;;;;;13.13;9.03;;;4.00;99.90;;;;;;5036104;28;20422;-69
2021/01/11 11:23:35;;;;;;;14.50;9.50;;;4.00;99.90;;;;;;5035966;28;20480;-69
2021/01/11 11:26:02;;;;;;;15.63;10.03;;;4.00;99.90;;;;;;5035858;28;20472;-69
2021/01/11 11:28:28;;;;;;;13.80;8.80;;;4.10;99.90;;;;;;5035841;28;20904;-68
2021/01/11 11:30:54;;;;;;;17.73;10.73;;;4.10;99.90;;;;;;5035817;28;20483;-69
2021/01/11 11:33:20;;;;;;;19.67;10.37;;;3.90;99.90;;;;;;5035681;28;20958;-68
2021/01/11 11:35:45;;;;;;;15.83;10.10;;;3.80;99.90;;;;;;5035790;28;20432;-69
2021/01/11 11:38:11;;;;;;;14.97;9.80;;;3.80;99.90;;;;;;5025665;28;20188;-69
2021/01/11 11:40:38;;;;;;;19.00;10.37;;;3.70;99.90;;;;;;5016084;28;20173;-69
2021/01/11 11:43:04;;;;;;;14.40;9.80;;;3.80;99.90;;;;;;5015909;28;20176;-68
2021/01/11 11:45:31;;;;;;;16.63;10.30;;;3.90;99.90;;;;;;5015732;28;20475;-68
2021/01/11 11:47:57;;;;;;;16.93;9.53;;;3.90;99.90;;;;;;5015757;28;20517;-68
2021/01/11 11:50:22;;;;;;;17.20;11.03;;;3.80;99.90;;;;;;5015661;28;20557;-69
2021/01/11 11:52:48;;;;;;;15.00;9.37;;;3.80;99.90;;;;;;5015615;28;20181;-69
2021/01/11 11:55:14;;;;;;;16.50;10.33;;;4.00;99.90;;;;;;5015611;28;20183;-69
2021/01/11 11:57:41;;;;;;;19.17;11.20;;;3.70;99.90;;;;;;5015674;28;20261;-69
2021/01/11 12:00:09;;;;;;;13.60;9.70;;;3.80;99.90;;;;;;5014625;28;20427;-68
2021/01/11 12:02:34;;;;;;;15.23;9.40;;;3.80;99.90;;;;;;5015272;28;20871;-69
2021/01/11 12:05:00;;;;;;;17.30;11.03;;;3.80;99.90;;;;;;5015467;28;20566;-68
2021/01/11 12:07:27;;;;;;;14.43;9.77;;;4.00;99.90;;;;;;5015184;28;20214;-69
2021/01/11 12:09:54;;;;;;;17.30;9.93;;;4.00;99.90;;;;;;5015323;28;20466;-69
2021/01/11 12:12:20;;;;;;;15.67;9.70;;;3.80;99.90;;;;;;5015261;28;20430;-69
2021/01/11 12:14:45;;;;;;;13.70;9.70;;;3.90;99.90;;;;;;5015167;28;20466;-68
2021/01/11 12:17:11;;;;;;;14.60;9.80;;;3.90;99.90;;;;;;5014954;28;20822;-67
2021/01/11 12:19:36;;;;;;;14.10;9.87;;;3.80;99.90;;;;;;5015265;28;20227;-67
2021/01/11 12:22:05;;;;;;;13.50;8.87;;;3.80;99.90;;;;;;5029401;28;20585;-69
2021/01/11 12:24:31;;;;;;;13.57;9.63;;;4.00;99.90;;;;;;5034714;28;20236;-67
2021/01/11 12:26:57;;;;;;;17.27;9.30;;;4.10;99.90;;;;;;5034782;28;20437;-66
2021/01/11 12:29:22;;;;;;;14.87;9.33;;;4.00;99.90;;;;;;5034646;28;20165;-66
2021/01/11 12:31:50;;;;;;;16.30;10.70;;;4.00;99.90;;;;;;5034705;28;20773;-67
2021/01/11 12:34:15;;;;;;;14.27;9.00;;;4.10;99.90;;;;;;5034638;28;20194;-67
2021/01/11 12:36:41;;;;;;;11.77;8.67;;;4.30;99.90;;;;;;5034571;28;20434;-67
2021/01/11 12:39:09;;;;;;;13.00;8.40;;;4.30;99.90;;;;;;5034533;28;20268;-67
2021/01/11 12:41:36;;;;;;;9.90;8.17;;;4.30;99.90;;;;;;5034468;28;20185;-67
2021/01/11 12:44:04;;;;;;;13.20;9.03;;;4.40;99.90;;;;;;5034315;28;20419;-67
2021/01/11 12:46:29;;;;;;;13.33;8.53;;;4.40;99.90;;;;;;5034445;28;20487;-69
2021/01/11 12:48:55;;;;;;;12.30;9.10;;;4.40;99.90;;;;;;5034395;28;20407;-69
2021/01/11 12:51:22;;;;;;;14.30;8.97;;;4.50;99.90;;;;;;5034212;28;20353;-69
2021/01/11 12:53:50;;;;;;;16.70;9.17;;;4.30;99.90;;;;;;5034335;28;20181;-69
2021/01/11 12:56:17;;;;;;;9.93;7.63;;;4.40;99.90;;;;;;5034134;28;20461;-69
2021/01/11 12:58:44;;;;;;;14.57;8.63;;;4.50;99.90;;;;;;5034162;28;20421;-69
2021/01/11 13:01:15;;;;;;;12.90;8.73;;;4.30;99.90;;;;;;5032910;28;20829;-68
2021/01/11 13:03:41;;;;;;;12.20;8.30;;;4.50;99.90;;;;;;5033318;28;20841;-68
2021/01/11 13:06:06;;;;;;;11.77;7.80;;;4.40;99.90;;;;;;5032903;28;20516;-68
2021/01/11 13:08:32;;;;;;;12.47;8.90;;;4.60;99.90;;;;;;5033198;28;20289;-69
2021/01/11 13:10:58;;;;;;;13.23;8.87;;;4.50;99.90;;;;;;5032333;28;20523;-69
2021/01/11 13:13:23;;;;;;;15.23;8.00;;;4.60;99.90;;;;;;5032879;28;20663;-69
2021/01/11 13:15:49;;;;;;;11.30;8.00;;;4.60;99.90;;;;;;5032913;28;20624;-70
2021/01/11 13:18:15;;;;;;;9.63;7.47;;;4.60;99.90;;;;;;5032708;28;20172;-70
2021/01/11 13:20:41;;;;;;;16.63;9.23;;;4.70;99.90;;;;;;5033004;28;20190;-67
2021/01/11 13:23:07;;;;;;;9.90;8.30;;;4.60;99.90;;;;;;5032959;28;20436;-68
2021/01/11 13:25:32;;;;;;;11.53;8.20;;;4.70;99.90;;;;;;5032670;28;20527;-68
2021/01/11 13:27:58;;;;;;;12.77;8.90;;;4.70;99.90;;;;;;5032722;28;20180;-69
2021/01/11 13:30:23;;;;;;;15.23;8.80;;;4.80;99.90;;;;;;5032674;28;20190;-69
2021/01/11 13:32:51;;;;;;;11.33;8.13;;;4.70;99.90;;;;;;5032655;28;20175;-68
2021/01/11 13:35:16;;;;;;;10.77;7.27;;;4.80;99.90;;;;;;5031408;28;20183;-69
2021/01/11 13:37:42;;;;;;;13.13;7.40;;;4.80;99.90;;;;;;5032606;28;20430;-69
2021/01/11 13:40:08;;;;;;;11.73;9.07;;;4.80;99.90;;;;;;5032497;28;20183;-69
2021/01/11 13:42:35;;;;;;;10.97;8.33;;;4.80;99.90;;;;;;5032430;28;20199;-69
2021/01/11 13:45:05;;;;;;;10.57;7.27;;;4.90;99.90;;;;;;5031150;28;20520;-69
2021/01/11 13:47:30;;;;;;;11.33;8.53;;;4.90;99.90;;;;;;5030359;28;20436;-69
2021/01/11 13:49:56;;;;;;;12.10;8.20;;;4.80;99.90;;;;;;5032377;28;20433;-68
2021/01/11 13:52:21;;;;;;;13.67;8.53;;;5.00;99.90;;;;;;5032367;28;20186;-69
2021/01/11 13:54:48;;;;;;;13.90;7.97;;;5.10;99.90;;;;;;5032549;28;20179;-69
2021/01/11 13:57:14;;;;;;;12.43;8.57;;;5.10;99.90;;;;;;5032319;28;20660;-69
2021/01/11 13:59:39;;;;;;;9.77;7.47;;;5.20;99.90;;;;;;5032445;28;20434;-70
2021/01/11 14:02:06;;;;;;;12.37;8.40;;;5.10;99.90;;;;;;5032285;28;20657;-69
2021/01/11 14:04:31;;;;;;;13.83;8.37;;;5.10;99.90;;;;;;5032170;28;20232;-69
2021/01/11 14:06:57;;;;;;;11.53;7.20;;;5.10;99.90;;;;;;5031983;28;20476;-69
2021/01/11 14:09:22;;;;;;;11.13;7.90;;;5.00;99.90;;;;;;5032173;28;20183;-69
2021/01/11 14:11:48;;;;;;;9.97;7.40;;;5.10;99.90;;;;;;5019374;28;20176;-69
2021/01/11 14:14:18;;;;;;;16.27;8.73;;;5.00;99.90;;;;;;5012362;28;20195;-69
2021/01/11 14:16:44;;;;;;;10.23;7.40;;;4.80;99.90;;;;;;5012384;28;20214;-69
2021/01/11 14:19:10;;;;;;;10.40;7.40;;;4.70;99.90;;;;;;5011959;28;20974;-69
2021/01/11 14:21:35;;;;;;;12.10;8.20;;;4.70;99.90;;;;;;5012148;28;20930;-68
2021/01/11 14:24:03;;;;;;;9.20;6.40;;;4.90;99.90;;;;;;5015609;28;20433;-69
2021/01/11 14:26:33;;;;;;;17.67;9.17;;;4.90;99.90;;;;;;5016284;28;20233;-69
2021/01/11 14:28:59;;;;;;;13.33;9.33;;;5.00;99.90;;;;;;5016298;28;20476;-69
2021/01/11 14:31:25;;;;;;;11.00;7.03;;;4.90;99.90;;;;;;5016305;28;20434;-67
2021/01/11 14:33:51;;;;;;;16.10;9.40;;;5.00;99.90;;;;;;5016131;28;20429;-70
2021/01/11 14:36:16;;;;;;;10.83;8.17;;;4.80;99.90;;;;;;5015758;28;20438;-70
2021/01/11 14:38:42;;;;;;;12.50;8.67;;;4.70;99.90;;;;;;5016270;28;20190;-78
2021/01/11 14:41:09;;;;;;;11.87;7.00;;;4.80;99.90;;;;;;5020872;28;20181;-70
2021/01/11 14:43:34;;;;;;;16.67;9.10;;;5.00;99.90;;;;;;5015766;28;20660;-73
2021/01/11 14:46:00;;;;;;;11.50;6.87;;;5.10;99.90;;;;;;5015490;28;20477;-71
2021/01/11 14:48:25;;;;;;;12.50;6.83;;;5.10;99.90;;;;;;5016037;28;20263;-70
2021/01/11 14:50:53;;;;;;;10.80;7.63;;;5.00;99.90;;;;;;5016421;28;20186;-70
2021/01/11 14:53:19;;;;;;;10.13;7.27;;;5.00;99.90;;;;;;5016072;28;20187;-70
2021/01/11 14:55:45;;;;;;;10.07;7.40;;;5.10;99.90;;;;;;5015875;28;20427;-70
2021/01/11 14:58:11;;;;;;;8.87;6.87;;;5.10;99.90;;;;;;5016649;28;20180;-70
2021/01/11 15:00:37;;;;;;;9.23;6.87;;;5.20;99.90;;;;;;5016717;28;20504;-70
2021/01/11 15:03:02;;;;;;;11.17;7.00;;;5.20;99.90;;;;;;5016573;28;20182;-70
2021/01/11 15:05:28;;;;;;;12.13;7.47;;;5.20;99.90;;;;;;5016415;28;20256;-70
2021/01/11 15:07:54;;;;;;;11.83;7.43;;;5.30;99.90;;;;;;5016371;28;20226;-70
2021/01/11 15:10:19;;;;;;;11.50;7.63;;;5.40;99.90;;;;;;5016393;28;20429;-70
2021/01/11 15:12:45;;;;;;;16.20;8.53;;;5.30;99.90;;;;;;5016555;28;20207;-70
2021/01/11 15:15:11;;;;;;;13.80;8.50;;;5.00;99.90;;;;;;5015159;28;20188;-70
2021/01/11 15:17:38;;;;;;;11.90;7.77;;;5.10;99.90;;;;;;5016339;28;20250;-70
2021/01/11 15:20:04;;;;;;;9.60;6.33;;;5.00;99.90;;;;;;5016139;28;20216;-70
2021/01/11 15:22:29;;;;;;;9.70;7.23;;;5.10;99.90;;;;;;5016140;28;20430;-70
2021/01/11 15:24:55;;;;;;;11.20;7.53;;;4.90;99.90;;;;;;5016086;28;20471;-70
2021/01/11 15:27:20;;;;;;;14.20;9.47;;;4.80;99.90;;;;;;5015396;28;21045;-70
2021/01/11 15:29:46;;;;;;;15.17;7.67;;;4.80;99.90;;;;;;5016257;28;20176;-70
2021/01/11 15:32:11;;;;;;;13.47;8.47;;;4.90;99.90;;;;;;5014977;28;20601;-70
2021/01/11 15:34:37;;;;;;;10.00;6.97;;;5.00;99.90;;;;;;5015094;28;20693;-70
2021/01/11 15:37:02;;;;;;;10.83;7.60;;;5.10;99.90;;;;;;5015748;28;20178;-70
2021/01/11 15:39:28;;;;;;;10.60;7.80;;;5.10;99.90;;;;;;5015915;28;20542;-70
2021/01/11 15:41:53;;;;;;;12.17;8.30;;;5.00;99.90;;;;;;5022406;28;20176;-70
2021/01/11 15:44:19;;;;;;;9.07;7.57;;;5.00;99.90;;;;;;5017129;28;20215;-70
2021/01/11 15:46:44;;;;;;;17.33;8.60;;;4.90;99.90;;;;;;5015542;28;20494;-69
2021/01/11 15:49:10;;;;;;;12.67;9.10;;;4.90;99.90;;;;;;5015580;28;20175;-68
2021/01/11 15:51:38;;;;;;;14.67;9.13;;;5.00;99.90;;;;;;5014678;28;20636;-71
2021/01/11 15:54:04;;;;;;;11.97;7.23;;;4.80;99.90;;;;;;5014947;28;20187;-69
2021/01/11 15:56:29;;;;;;;11.17;7.57;;;5.10;99.90;;;;;;5015172;28;20423;-70
2021/01/11 15:58:55;;;;;;;12.13;9.03;;;5.10;99.90;;;;;;5017350;28;20249;-69
2021/01/11 16:01:21;;;;;;;11.80;8.50;;;5.10;99.90;;;;;;5014848;28;20245;-69
2021/01/11 16:03:48;;;;;;;11.87;7.80;;;5.10;99.90;;;;;;5014718;28;20320;-69
2021/01/11 16:06:13;;;;;;;12.43;8.87;;;4.90;99.90;;;;;;5017506;28;20285;-70
2021/01/11 16:08:44;;;;;;;14.80;9.93;;;4.90;99.90;;;;;;5019974;28;20418;-70
2021/01/11 16:11:18;;;;;;;12.23;8.37;;;5.00;99.90;;;;;;5028282;28;20167;-69
2021/01/11 16:13:44;;;;;;;13.17;8.67;;;5.10;99.90;;;;;;5033797;28;20434;-69
2021/01/11 16:16:16;;;;;;;11.33;8.00;;;5.20;99.90;;;;;;5035100;28;20433;-69
2021/01/11 16:18:45;;;;;;;11.10;9.20;;;5.20;99.90;;;;;;5034469;28;20261;-69
2021/01/11 16:21:21;;;;;;;14.20;9.10;;;5.10;99.90;;;;;;5034169;28;20430;-69
2021/01/11 16:23:46;;;;;;;12.20;9.50;;;5.00;99.90;;;;;;5034199;28;20424;-69
2021/01/11 16:26:23;;;;;;;15.43;10.13;;;5.10;99.90;;;;;;5033916;28;20476;-69
2021/01/11 16:28:51;;;;;;;13.90;8.70;;;5.10;99.90;;;;;;5034015;28;20668;-71
2021/01/11 16:31:32;;;;;;;15.23;9.47;;;5.20;99.90;;;;;;5034016;28;20436;-69
2021/01/11 16:33:59;;;;;;;12.83;9.27;;;5.10;99.90;;;;;;5033778;28;20457;-69
2021/01/11 16:36:26;;;;;;;13.20;9.40;;;5.00;99.90;;;;;;5033902;28;20448;-68
2021/01/11 16:38:52;;;;;;;13.70;10.10;;;5.10;99.90;;;;;;5033761;28;20432;-69
2021/01/11 16:41:22;;;;;;;13.50;10.00;;;5.10;99.90;;;;;;5033499;28;20528;-68
2021/01/11 16:43:49;;;;;;;13.30;8.77;;;5.10;99.90;;;;;;5033635;28;20513;-68
2021/01/11 16:46:16;;;;;;;14.13;9.80;;;5.00;99.90;;;;;;5033203;28;20473;-69
2021/01/11 16:48:42;;;;;;;15.70;10.30;;;5.10;99.90;;;;;;5032160;28;21012;-68
2021/01/11 16:51:07;;;;;;;14.27;10.83;;;5.20;99.90;;;;;;5033547;28;20494;-68
2021/01/11 16:53:33;;;;;;;13.60;10.20;;;5.10;99.90;;;;;;5026297;28;20180;-69
2021/01/11 16:55:58;;;;;;;12.73;9.40;;;5.10;99.90;;;;;;5013410;28;20178;-69